sensor_id;sensor_type;location;lat;lon;timestamp;P1;durP1;ratioP1;P2;durP2;ratioP2
75209;SDS011;63796;53.136;14.882;2022-12-29T00:01:21;2.60;;;1.03;;
75209;SDS011;63796;53.136;14.882;2022-12-29T00:03:51;4.65;;;1.15;;
75209;SDS011;63796;53.136;14.882;2022-12-29T00:06:22;3.30;;;1.80;;
75209;SDS011;63796;53.136;14.882;2022-12-29T00:08:49;3.20;;;1.30;;
75209;SDS011;63796;53.136;14.882;2022-12-29T00:11:22;2.20;;;1.10;;
75209;SDS011;63796;53.136;14.882;2022-12-29T00:14:07;2.33;;;1.30;;
75209;SDS011;63796;53.136;14.882;2022-12-29T00:16:49;2.30;;;1.07;;
75209;SDS011;63796;53.136;14.882;2022-12-29T00:19:22;2.37;;;1.27;;
75209;SDS011;63796;53.136;14.882;2022-12-29T00:22:10;1.35;;;0.90;;
75209;SDS011;63796;53.136;14.882;2022-12-29T00:25:11;4.03;;;0.85;;
75209;SDS011;63796;53.136;14.882;2022-12-29T00:27:56;4.93;;;1.60;;
75209;SDS011;63796;53.136;14.882;2022-12-29T00:30:42;2.75;;;1.00;;
75209;SDS011;63796;53.136;14.882;2022-12-29T00:33:30;1.72;;;0.90;;
75209;SDS011;63796;53.136;14.882;2022-12-29T00:39:07;3.00;;;0.88;;
75209;SDS011;63796;53.136;14.882;2022-12-29T00:42:07;2.13;;;1.10;;
75209;SDS011;63796;53.136;14.882;2022-12-29T00:44:48;2.92;;;1.15;;
75209;SDS011;63796;53.136;14.882;2022-12-29T00:47:22;3.87;;;0.88;;
75209;SDS011;63796;53.136;14.882;2022-12-29T00:49:51;1.47;;;0.70;;
75209;SDS011;63796;53.136;14.882;2022-12-29T00:52:44;3.33;;;1.15;;
75209;SDS011;63796;53.136;14.882;2022-12-29T00:55:14;5.57;;;1.17;;
75209;SDS011;63796;53.136;14.882;2022-12-29T00:57:33;2.92;;;1.25;;
75209;SDS011;63796;53.136;14.882;2022-12-29T01:00:10;2.35;;;0.90;;
75209;SDS011;63796;53.136;14.882;2022-12-29T01:02:36;3.62;;;1.35;;
75209;SDS011;63796;53.136;14.882;2022-12-29T01:05:09;2.40;;;1.00;;
75209;SDS011;63796;53.136;14.882;2022-12-29T01:10:32;2.75;;;1.17;;
75209;SDS011;63796;53.136;14.882;2022-12-29T01:13:16;3.80;;;1.55;;
75209;SDS011;63796;53.136;14.882;2022-12-29T01:15:55;3.15;;;0.85;;
75209;SDS011;63796;53.136;14.882;2022-12-29T01:18:32;2.75;;;1.30;;
75209;SDS011;63796;53.136;14.882;2022-12-29T01:21:21;1.83;;;1.30;;
75209;SDS011;63796;53.136;14.882;2022-12-29T01:24:17;3.05;;;1.00;;
75209;SDS011;63796;53.136;14.882;2022-12-29T01:29:50;2.92;;;1.27;;
75209;SDS011;63796;53.136;14.882;2022-12-29T01:35:41;2.00;;;1.13;;
75209;SDS011;63796;53.136;14.882;2022-12-29T01:38:27;2.85;;;1.05;;
75209;SDS011;63796;53.136;14.882;2022-12-29T01:44:48;2.22;;;1.17;;
75209;SDS011;63796;53.136;14.882;2022-12-29T01:53:57;2.10;;;1.00;;
75209;SDS011;63796;53.136;14.882;2022-12-29T02:01:12;2.83;;;0.88;;
75209;SDS011;63796;53.136;14.882;2022-12-29T02:05:46;2.35;;;1.00;;
75209;SDS011;63796;53.136;14.882;2022-12-29T02:09:08;1.55;;;0.75;;
75209;SDS011;63796;53.136;14.882;2022-12-29T02:12:05;1.40;;;1.10;;
75209;SDS011;63796;53.136;14.882;2022-12-29T02:14:33;2.30;;;1.05;;
75209;SDS011;63796;53.136;14.882;2022-12-29T02:22:45;2.27;;;1.30;;
75209;SDS011;63796;53.136;14.882;2022-12-29T02:28:38;3.67;;;1.00;;
75209;SDS011;63796;53.136;14.882;2022-12-29T02:31:49;2.45;;;1.47;;
75209;SDS011;63796;53.136;14.882;2022-12-29T02:34:52;1.92;;;1.20;;
75209;SDS011;63796;53.136;14.882;2022-12-29T02:40:35;4.20;;;1.50;;
75209;SDS011;63796;53.136;14.882;2022-12-29T02:43:19;2.27;;;1.52;;
75209;SDS011;63796;53.136;14.882;2022-12-29T02:46:12;3.45;;;1.30;;
75209;SDS011;63796;53.136;14.882;2022-12-29T02:49:04;3.60;;;1.22;;
75209;SDS011;63796;53.136;14.882;2022-12-29T02:51:44;3.08;;;1.60;;
75209;SDS011;63796;53.136;14.882;2022-12-29T02:54:20;2.17;;;1.17;;
75209;SDS011;63796;53.136;14.882;2022-12-29T02:59:56;2.37;;;1.07;;
75209;SDS011;63796;53.136;14.882;2022-12-29T03:08:44;3.53;;;1.50;;
75209;SDS011;63796;53.136;14.882;2022-12-29T03:11:17;2.62;;;1.10;;
75209;SDS011;63796;53.136;14.882;2022-12-29T03:14:04;2.25;;;1.27;;
75209;SDS011;63796;53.136;14.882;2022-12-29T03:17:24;1.90;;;1.07;;
75209;SDS011;63796;53.136;14.882;2022-12-29T03:20:08;2.30;;;0.70;;
75209;SDS011;63796;53.136;14.882;2022-12-29T03:22:40;1.50;;;0.80;;
75209;SDS011;63796;53.136;14.882;2022-12-29T03:27:56;1.50;;;0.93;;
75209;SDS011;63796;53.136;14.882;2022-12-29T03:30:39;2.27;;;0.82;;
75209;SDS011;63796;53.136;14.882;2022-12-29T03:33:09;1.10;;;0.55;;
75209;SDS011;63796;53.136;14.882;2022-12-29T03:35:40;1.03;;;0.43;;
75209;SDS011;63796;53.136;14.882;2022-12-29T03:38:14;3.83;;;0.82;;
75209;SDS011;63796;53.136;14.882;2022-12-29T03:40:58;4.15;;;1.00;;
75209;SDS011;63796;53.136;14.882;2022-12-29T03:43:29;3.30;;;0.98;;
75209;SDS011;63796;53.136;14.882;2022-12-29T03:45:57;2.42;;;0.50;;
75209;SDS011;63796;53.136;14.882;2022-12-29T03:48:23;1.27;;;0.90;;
75209;SDS011;63796;53.136;14.882;2022-12-29T03:50:51;3.35;;;0.70;;
75209;SDS011;63796;53.136;14.882;2022-12-29T03:53:18;2.80;;;0.90;;
75209;SDS011;63796;53.136;14.882;2022-12-29T03:55:45;2.10;;;0.72;;
75209;SDS011;63796;53.136;14.882;2022-12-29T03:58:12;2.02;;;0.90;;
75209;SDS011;63796;53.136;14.882;2022-12-29T04:00:38;4.60;;;0.70;;
75209;SDS011;63796;53.136;14.882;2022-12-29T04:03:05;2.92;;;0.80;;
75209;SDS011;63796;53.136;14.882;2022-12-29T04:05:32;5.12;;;0.90;;
75209;SDS011;63796;53.136;14.882;2022-12-29T04:07:59;0.70;;;0.50;;
75209;SDS011;63796;53.136;14.882;2022-12-29T04:10:26;1.42;;;0.80;;
75209;SDS011;63796;53.136;14.882;2022-12-29T04:12:53;2.40;;;0.60;;
75209;SDS011;63796;53.136;14.882;2022-12-29T04:15:19;0.90;;;0.50;;
75209;SDS011;63796;53.136;14.882;2022-12-29T04:17:46;2.20;;;0.60;;
75209;SDS011;63796;53.136;14.882;2022-12-29T04:20:13;1.87;;;0.70;;
75209;SDS011;63796;53.136;14.882;2022-12-29T04:22:59;0.78;;;0.53;;
75209;SDS011;63796;53.136;14.882;2022-12-29T04:25:28;1.77;;;0.70;;
75209;SDS011;63796;53.136;14.882;2022-12-29T04:27:55;1.17;;;0.55;;
75209;SDS011;63796;53.136;14.882;2022-12-29T04:30:22;3.33;;;0.62;;
75209;SDS011;63796;53.136;14.882;2022-12-29T04:32:49;2.35;;;0.70;;
75209;SDS011;63796;53.136;14.882;2022-12-29T04:35:16;2.92;;;0.60;;
75209;SDS011;63796;53.136;14.882;2022-12-29T04:37:43;2.13;;;0.60;;
75209;SDS011;63796;53.136;14.882;2022-12-29T04:40:10;3.33;;;0.50;;
75209;SDS011;63796;53.136;14.882;2022-12-29T04:42:37;0.90;;;0.60;;
75209;SDS011;63796;53.136;14.882;2022-12-29T04:45:05;1.27;;;0.60;;
75209;SDS011;63796;53.136;14.882;2022-12-29T04:47:33;1.50;;;0.50;;
75209;SDS011;63796;53.136;14.882;2022-12-29T04:49:59;2.50;;;0.47;;
75209;SDS011;63796;53.136;14.882;2022-12-29T04:52:27;3.27;;;1.00;;
75209;SDS011;63796;53.136;14.882;2022-12-29T04:54:54;3.52;;;0.80;;
75209;SDS011;63796;53.136;14.882;2022-12-29T04:57:21;1.70;;;0.68;;
75209;SDS011;63796;53.136;14.882;2022-12-29T04:59:48;1.87;;;0.60;;
75209;SDS011;63796;53.136;14.882;2022-12-29T05:02:16;1.45;;;0.95;;
75209;SDS011;63796;53.136;14.882;2022-12-29T05:04:43;1.65;;;0.60;;
75209;SDS011;63796;53.136;14.882;2022-12-29T05:07:10;0.90;;;0.50;;
75209;SDS011;63796;53.136;14.882;2022-12-29T05:09:37;2.15;;;0.50;;
75209;SDS011;63796;53.136;14.882;2022-12-29T05:12:07;2.10;;;0.43;;
75209;SDS011;63796;53.136;14.882;2022-12-29T05:14:34;2.35;;;0.50;;
75209;SDS011;63796;53.136;14.882;2022-12-29T05:17:01;0.75;;;0.50;;
75209;SDS011;63796;53.136;14.882;2022-12-29T05:19:27;1.72;;;0.60;;
75209;SDS011;63796;53.136;14.882;2022-12-29T05:21:54;2.40;;;0.65;;
75209;SDS011;63796;53.136;14.882;2022-12-29T05:24:21;0.90;;;0.50;;
75209;SDS011;63796;53.136;14.882;2022-12-29T05:26:48;1.62;;;0.68;;
75209;SDS011;63796;53.136;14.882;2022-12-29T05:29:15;1.20;;;0.50;;
75209;SDS011;63796;53.136;14.882;2022-12-29T05:31:42;1.35;;;0.72;;
75209;SDS011;63796;53.136;14.882;2022-12-29T05:34:10;1.00;;;0.65;;
75209;SDS011;63796;53.136;14.882;2022-12-29T05:36:38;1.67;;;0.40;;
75209;SDS011;63796;53.136;14.882;2022-12-29T05:39:05;1.20;;;0.40;;
75209;SDS011;63796;53.136;14.882;2022-12-29T05:41:33;1.90;;;0.50;;
75209;SDS011;63796;53.136;14.882;2022-12-29T05:44:00;1.27;;;0.60;;
75209;SDS011;63796;53.136;14.882;2022-12-29T05:46:27;1.02;;;0.50;;
75209;SDS011;63796;53.136;14.882;2022-12-29T05:48:54;5.83;;;0.53;;
75209;SDS011;63796;53.136;14.882;2022-12-29T05:51:21;1.65;;;0.35;;
75209;SDS011;63796;53.136;14.882;2022-12-29T05:53:48;1.95;;;0.60;;
75209;SDS011;63796;53.136;14.882;2022-12-29T05:56:15;1.25;;;0.28;;
75209;SDS011;63796;53.136;14.882;2022-12-29T05:58:42;1.77;;;0.40;;
75209;SDS011;63796;53.136;14.882;2022-12-29T06:01:09;1.83;;;0.60;;
75209;SDS011;63796;53.136;14.882;2022-12-29T06:03:36;3.58;;;0.60;;
75209;SDS011;63796;53.136;14.882;2022-12-29T06:06:03;1.00;;;0.40;;
75209;SDS011;63796;53.136;14.882;2022-12-29T06:08:30;1.32;;;0.50;;
75209;SDS011;63796;53.136;14.882;2022-12-29T06:10:57;2.58;;;0.62;;
75209;SDS011;63796;53.136;14.882;2022-12-29T06:13:23;2.00;;;0.60;;
75209;SDS011;63796;53.136;14.882;2022-12-29T06:15:50;1.10;;;0.78;;
75209;SDS011;63796;53.136;14.882;2022-12-29T06:18:17;1.65;;;0.60;;
75209;SDS011;63796;53.136;14.882;2022-12-29T06:20:44;0.60;;;0.40;;
75209;SDS011;63796;53.136;14.882;2022-12-29T06:23:11;2.33;;;0.40;;
75209;SDS011;63796;53.136;14.882;2022-12-29T06:25:38;4.47;;;1.43;;
75209;SDS011;63796;53.136;14.882;2022-12-29T06:28:05;1.70;;;0.30;;
75209;SDS011;63796;53.136;14.882;2022-12-29T06:30:32;1.55;;;0.85;;
75209;SDS011;63796;53.136;14.882;2022-12-29T06:32:59;1.95;;;0.82;;
75209;SDS011;63796;53.136;14.882;2022-12-29T06:35:26;2.92;;;0.50;;
75209;SDS011;63796;53.136;14.882;2022-12-29T06:37:53;1.23;;;0.63;;
75209;SDS011;63796;53.136;14.882;2022-12-29T06:40:20;1.82;;;0.47;;
75209;SDS011;63796;53.136;14.882;2022-12-29T06:42:47;1.92;;;0.60;;
75209;SDS011;63796;53.136;14.882;2022-12-29T06:45:14;2.15;;;0.47;;
75209;SDS011;63796;53.136;14.882;2022-12-29T06:47:41;2.45;;;0.70;;
75209;SDS011;63796;53.136;14.882;2022-12-29T06:50:08;0.93;;;0.40;;
75209;SDS011;63796;53.136;14.882;2022-12-29T06:52:35;1.72;;;0.65;;
75209;SDS011;63796;53.136;14.882;2022-12-29T06:55:02;1.95;;;0.70;;
75209;SDS011;63796;53.136;14.882;2022-12-29T06:57:30;2.17;;;0.90;;
75209;SDS011;63796;53.136;14.882;2022-12-29T06:59:57;1.32;;;0.70;;
75209;SDS011;63796;53.136;14.882;2022-12-29T07:02:24;1.30;;;0.67;;
75209;SDS011;63796;53.136;14.882;2022-12-29T07:04:51;1.45;;;0.60;;
75209;SDS011;63796;53.136;14.882;2022-12-29T07:07:19;1.40;;;1.02;;
75209;SDS011;63796;53.136;14.882;2022-12-29T07:09:46;2.15;;;0.65;;
75209;SDS011;63796;53.136;14.882;2022-12-29T07:12:13;2.20;;;0.60;;
75209;SDS011;63796;53.136;14.882;2022-12-29T07:14:40;1.70;;;0.60;;
75209;SDS011;63796;53.136;14.882;2022-12-29T07:17:07;4.90;;;0.60;;
75209;SDS011;63796;53.136;14.882;2022-12-29T07:19:34;1.57;;;0.65;;
75209;SDS011;63796;53.136;14.882;2022-12-29T07:22:01;1.20;;;0.60;;
75209;SDS011;63796;53.136;14.882;2022-12-29T07:24:28;1.65;;;0.88;;
75209;SDS011;63796;53.136;14.882;2022-12-29T07:26:55;2.20;;;0.90;;
75209;SDS011;63796;53.136;14.882;2022-12-29T07:29:22;1.50;;;0.82;;
75209;SDS011;63796;53.136;14.882;2022-12-29T07:31:50;2.65;;;0.75;;
75209;SDS011;63796;53.136;14.882;2022-12-29T07:34:16;3.55;;;0.65;;
75209;SDS011;63796;53.136;14.882;2022-12-29T07:36:43;1.85;;;0.53;;
75209;SDS011;63796;53.136;14.882;2022-12-29T07:39:10;1.97;;;0.70;;
75209;SDS011;63796;53.136;14.882;2022-12-29T07:41:37;4.42;;;0.82;;
75209;SDS011;63796;53.136;14.882;2022-12-29T07:44:04;3.30;;;0.80;;
75209;SDS011;63796;53.136;14.882;2022-12-29T07:46:31;2.47;;;0.80;;
75209;SDS011;63796;53.136;14.882;2022-12-29T07:48:58;2.30;;;0.93;;
75209;SDS011;63796;53.136;14.882;2022-12-29T07:51:25;1.20;;;0.70;;
75209;SDS011;63796;53.136;14.882;2022-12-29T07:53:52;3.35;;;1.10;;
75209;SDS011;63796;53.136;14.882;2022-12-29T07:56:19;1.57;;;1.35;;
75209;SDS011;63796;53.136;14.882;2022-12-29T07:58:46;1.60;;;0.60;;
75209;SDS011;63796;53.136;14.882;2022-12-29T08:01:12;1.50;;;0.70;;
75209;SDS011;63796;53.136;14.882;2022-12-29T08:03:39;2.57;;;0.77;;
75209;SDS011;63796;53.136;14.882;2022-12-29T08:06:08;2.08;;;0.90;;
75209;SDS011;63796;53.136;14.882;2022-12-29T08:08:36;0.90;;;0.62;;
75209;SDS011;63796;53.136;14.882;2022-12-29T08:11:04;2.27;;;0.78;;
75209;SDS011;63796;53.136;14.882;2022-12-29T08:13:30;1.32;;;0.78;;
75209;SDS011;63796;53.136;14.882;2022-12-29T08:15:57;1.50;;;0.67;;
75209;SDS011;63796;53.136;14.882;2022-12-29T08:18:24;1.42;;;0.80;;
75209;SDS011;63796;53.136;14.882;2022-12-29T08:20:51;1.85;;;0.70;;
75209;SDS011;63796;53.136;14.882;2022-12-29T08:23:18;1.57;;;0.82;;
75209;SDS011;63796;53.136;14.882;2022-12-29T08:25:45;2.20;;;0.80;;
75209;SDS011;63796;53.136;14.882;2022-12-29T08:28:11;1.10;;;0.70;;
75209;SDS011;63796;53.136;14.882;2022-12-29T08:30:38;3.42;;;0.90;;
75209;SDS011;63796;53.136;14.882;2022-12-29T08:33:05;1.85;;;0.90;;
75209;SDS011;63796;53.136;14.882;2022-12-29T08:35:32;1.62;;;1.15;;
75209;SDS011;63796;53.136;14.882;2022-12-29T08:37:59;1.65;;;0.85;;
75209;SDS011;63796;53.136;14.882;2022-12-29T08:40:25;5.10;;;0.93;;
75209;SDS011;63796;53.136;14.882;2022-12-29T08:42:52;1.15;;;0.70;;
75209;SDS011;63796;53.136;14.882;2022-12-29T08:45:22;2.72;;;0.80;;
75209;SDS011;63796;53.136;14.882;2022-12-29T08:47:49;1.90;;;0.68;;
75209;SDS011;63796;53.136;14.882;2022-12-29T08:50:16;1.20;;;0.80;;
75209;SDS011;63796;53.136;14.882;2022-12-29T08:52:43;1.97;;;0.70;;
75209;SDS011;63796;53.136;14.882;2022-12-29T08:55:10;1.62;;;0.70;;
75209;SDS011;63796;53.136;14.882;2022-12-29T08:57:37;0.93;;;0.80;;
75209;SDS011;63796;53.136;14.882;2022-12-29T09:00:04;1.30;;;0.90;;
75209;SDS011;63796;53.136;14.882;2022-12-29T09:02:32;2.15;;;0.78;;
75209;SDS011;63796;53.136;14.882;2022-12-29T09:04:59;1.67;;;1.00;;
75209;SDS011;63796;53.136;14.882;2022-12-29T09:07:26;3.47;;;1.30;;
75209;SDS011;63796;53.136;14.882;2022-12-29T09:09:53;3.05;;;1.15;;
75209;SDS011;63796;53.136;14.882;2022-12-29T09:12:20;1.98;;;0.90;;
75209;SDS011;63796;53.136;14.882;2022-12-29T09:14:46;3.05;;;0.90;;
75209;SDS011;63796;53.136;14.882;2022-12-29T09:17:13;1.30;;;0.80;;
75209;SDS011;63796;53.136;14.882;2022-12-29T09:19:58;2.40;;;0.80;;
75209;SDS011;63796;53.136;14.882;2022-12-29T09:22:25;2.15;;;1.02;;
75209;SDS011;63796;53.136;14.882;2022-12-29T09:24:52;2.85;;;1.00;;
75209;SDS011;63796;53.136;14.882;2022-12-29T09:27:18;1.70;;;1.05;;
75209;SDS011;63796;53.136;14.882;2022-12-29T09:29:45;2.83;;;0.80;;
75209;SDS011;63796;53.136;14.882;2022-12-29T09:32:12;2.22;;;0.75;;
75209;SDS011;63796;53.136;14.882;2022-12-29T09:34:38;2.05;;;1.02;;
75209;SDS011;63796;53.136;14.882;2022-12-29T09:37:05;3.77;;;1.52;;
75209;SDS011;63796;53.136;14.882;2022-12-29T09:39:32;2.15;;;1.00;;
75209;SDS011;63796;53.136;14.882;2022-12-29T09:45:25;1.75;;;1.20;;
75209;SDS011;63796;53.136;14.882;2022-12-29T09:47:54;2.70;;;1.20;;
75209;SDS011;63796;53.136;14.882;2022-12-29T09:53:01;2.92;;;0.95;;
75209;SDS011;63796;53.136;14.882;2022-12-29T09:55:38;2.57;;;0.80;;
75209;SDS011;63796;53.136;14.882;2022-12-29T09:58:21;2.77;;;1.00;;
75209;SDS011;63796;53.136;14.882;2022-12-29T10:01:06;3.00;;;1.20;;
75209;SDS011;63796;53.136;14.882;2022-12-29T10:06:22;2.37;;;1.02;;
75209;SDS011;63796;53.136;14.882;2022-12-29T10:26:17;1.98;;;0.80;;
75209;SDS011;63796;53.136;14.882;2022-12-29T10:28:48;2.92;;;0.85;;
75209;SDS011;63796;53.136;14.882;2022-12-29T10:31:26;4.50;;;1.10;;
75209;SDS011;63796;53.136;14.882;2022-12-29T10:36:54;2.03;;;0.80;;
75209;SDS011;63796;53.136;14.882;2022-12-29T10:39:46;1.67;;;0.70;;
75209;SDS011;63796;53.136;14.882;2022-12-29T10:45:05;0.80;;;0.80;;
75209;SDS011;63796;53.136;14.882;2022-12-29T10:47:35;1.40;;;0.68;;
75209;SDS011;63796;53.136;14.882;2022-12-29T10:50:06;2.83;;;0.80;;
75209;SDS011;63796;53.136;14.882;2022-12-29T10:52:33;0.80;;;0.40;;
75209;SDS011;63796;53.136;14.882;2022-12-29T10:55:05;1.55;;;0.50;;
75209;SDS011;63796;53.136;14.882;2022-12-29T10:57:43;8.20;;;0.70;;
75209;SDS011;63796;53.136;14.882;2022-12-29T11:08:16;3.02;;;0.45;;
75209;SDS011;63796;53.136;14.882;2022-12-29T11:11:03;1.17;;;0.50;;
75209;SDS011;63796;53.136;14.882;2022-12-29T11:13:47;1.05;;;0.40;;
75209;SDS011;63796;53.136;14.882;2022-12-29T11:16:29;1.57;;;0.60;;
75209;SDS011;63796;53.136;14.882;2022-12-29T11:19:23;0.55;;;0.30;;
75209;SDS011;63796;53.136;14.882;2022-12-29T11:21:53;1.90;;;0.72;;
75209;SDS011;63796;53.136;14.882;2022-12-29T11:24:22;16.37;;;7.40;;
75209;SDS011;63796;53.136;14.882;2022-12-29T11:29:52;4.03;;;2.33;;
75209;SDS011;63796;53.136;14.882;2022-12-29T11:32:21;1.15;;;0.85;;
75209;SDS011;63796;53.136;14.882;2022-12-29T11:34:51;8.03;;;2.77;;
75209;SDS011;63796;53.136;14.882;2022-12-29T11:37:29;4.80;;;1.75;;
75209;SDS011;63796;53.136;14.882;2022-12-29T11:42:48;1.33;;;0.60;;
75209;SDS011;63796;53.136;14.882;2022-12-29T11:45:28;1.32;;;0.50;;
75209;SDS011;63796;53.136;14.882;2022-12-29T11:50:36;4.42;;;0.72;;
75209;SDS011;63796;53.136;14.882;2022-12-29T11:55:53;5.57;;;1.10;;
75209;SDS011;63796;53.136;14.882;2022-12-29T11:58:32;4.45;;;1.47;;
75209;SDS011;63796;53.136;14.882;2022-12-29T12:01:07;6.85;;;3.15;;
75209;SDS011;63796;53.136;14.882;2022-12-29T12:04:03;4.40;;;2.02;;
75209;SDS011;63796;53.136;14.882;2022-12-29T12:09:50;2.83;;;1.00;;
75209;SDS011;63796;53.136;14.882;2022-12-29T12:12:23;4.10;;;1.82;;
75209;SDS011;63796;53.136;14.882;2022-12-29T12:14:58;6.97;;;2.92;;
75209;SDS011;63796;53.136;14.882;2022-12-29T12:17:33;6.67;;;2.50;;
75209;SDS011;63796;53.136;14.882;2022-12-29T12:25:59;4.15;;;2.05;;
75209;SDS011;63796;53.136;14.882;2022-12-29T12:31:17;4.55;;;2.20;;
75209;SDS011;63796;53.136;14.882;2022-12-29T12:33:44;6.05;;;2.80;;
75209;SDS011;63796;53.136;14.882;2022-12-29T12:36:43;3.70;;;0.90;;
75209;SDS011;63796;53.136;14.882;2022-12-29T12:42:39;2.05;;;0.70;;
75209;SDS011;63796;53.136;14.882;2022-12-29T12:59:59;0.80;;;0.42;;
75209;SDS011;63796;53.136;14.882;2022-12-29T13:08:35;1.17;;;0.40;;
75209;SDS011;63796;53.136;14.882;2022-12-29T13:15:00;2.67;;;1.10;;
75209;SDS011;63796;53.136;14.882;2022-12-29T13:23:26;2.42;;;0.60;;
75209;SDS011;63796;53.136;14.882;2022-12-29T13:37:17;2.22;;;0.72;;
75209;SDS011;63796;53.136;14.882;2022-12-29T13:39:58;4.20;;;1.82;;
75209;SDS011;63796;53.136;14.882;2022-12-29T13:42:34;7.85;;;3.25;;
75209;SDS011;63796;53.136;14.882;2022-12-29T13:45:06;3.47;;;1.90;;
75209;SDS011;63796;53.136;14.882;2022-12-29T13:47:46;62.87;;;25.30;;
75209;SDS011;63796;53.136;14.882;2022-12-29T13:50:17;28.25;;;10.30;;
75209;SDS011;63796;53.136;14.882;2022-12-29T13:52:55;48.78;;;16.82;;
75209;SDS011;63796;53.136;14.882;2022-12-29T13:55:51;59.53;;;20.12;;
75209;SDS011;63796;53.136;14.882;2022-12-29T14:03:57;9.40;;;3.60;;
75209;SDS011;63796;53.136;14.882;2022-12-29T14:06:35;21.37;;;7.78;;
75209;SDS011;63796;53.136;14.882;2022-12-29T14:09:18;29.42;;;11.18;;
75209;SDS011;63796;53.136;14.882;2022-12-29T14:12:57;37.45;;;14.90;;
75209;SDS011;63796;53.136;14.882;2022-12-29T14:17:42;22.85;;;10.93;;
75209;SDS011;63796;53.136;14.882;2022-12-29T14:20:18;16.48;;;7.83;;
75209;SDS011;63796;53.136;14.882;2022-12-29T14:23:00;9.03;;;4.45;;
75209;SDS011;63796;53.136;14.882;2022-12-29T14:28:29;23.83;;;9.50;;
75209;SDS011;63796;53.136;14.882;2022-12-29T14:36:39;52.65;;;19.07;;
75209;SDS011;63796;53.136;14.882;2022-12-29T14:39:29;87.65;;;31.10;;
75209;SDS011;63796;53.136;14.882;2022-12-29T14:44:47;143.80;;;52.50;;
75209;SDS011;63796;53.136;14.882;2022-12-29T14:55:31;87.77;;;29.83;;
75209;SDS011;63796;53.136;14.882;2022-12-29T15:01:00;58.92;;;19.07;;
75209;SDS011;63796;53.136;14.882;2022-12-29T15:03:43;43.05;;;13.43;;
75209;SDS011;63796;53.136;14.882;2022-12-29T15:06:18;37.65;;;13.62;;
75209;SDS011;63796;53.136;14.882;2022-12-29T15:11:22;43.55;;;15.45;;
75209;SDS011;63796;53.136;14.882;2022-12-29T15:13:53;71.17;;;24.60;;
75209;SDS011;63796;53.136;14.882;2022-12-29T15:18:58;68.17;;;23.60;;
75209;SDS011;63796;53.136;14.882;2022-12-29T15:21:29;45.57;;;14.53;;
75209;SDS011;63796;53.136;14.882;2022-12-29T15:24:00;27.15;;;8.55;;
75209;SDS011;63796;53.136;14.882;2022-12-29T15:26:47;18.62;;;7.70;;
75209;SDS011;63796;53.136;14.882;2022-12-29T15:29:30;20.82;;;7.70;;
75209;SDS011;63796;53.136;14.882;2022-12-29T15:32:10;7.47;;;2.30;;
75209;SDS011;63796;53.136;14.882;2022-12-29T15:34:49;4.13;;;2.23;;
75209;SDS011;63796;53.136;14.882;2022-12-29T15:37:23;1.37;;;0.80;;
75209;SDS011;63796;53.136;14.882;2022-12-29T15:39:54;3.47;;;0.75;;
75209;SDS011;63796;53.136;14.882;2022-12-29T15:45:13;2.95;;;1.07;;
75209;SDS011;63796;53.136;14.882;2022-12-29T15:47:47;1.67;;;0.40;;
75209;SDS011;63796;53.136;14.882;2022-12-29T15:52:50;3.42;;;0.82;;
75209;SDS011;63796;53.136;14.882;2022-12-29T15:55:31;1.45;;;0.62;;
75209;SDS011;63796;53.136;14.882;2022-12-29T15:58:05;1.45;;;0.60;;
75209;SDS011;63796;53.136;14.882;2022-12-29T16:00:54;1.70;;;0.50;;
75209;SDS011;63796;53.136;14.882;2022-12-29T16:03:24;4.00;;;0.98;;
75209;SDS011;63796;53.136;14.882;2022-12-29T16:05:55;3.17;;;0.80;;
75209;SDS011;63796;53.136;14.882;2022-12-29T16:08:38;1.65;;;0.70;;
75209;SDS011;63796;53.136;14.882;2022-12-29T16:11:22;4.97;;;1.85;;
75209;SDS011;63796;53.136;14.882;2022-12-29T16:13:59;2.23;;;0.63;;
75209;SDS011;63796;53.136;14.882;2022-12-29T16:16:31;3.05;;;0.72;;
75209;SDS011;63796;53.136;14.882;2022-12-29T16:19:18;3.30;;;0.50;;
75209;SDS011;63796;53.136;14.882;2022-12-29T16:21:45;3.27;;;1.45;;
75209;SDS011;63796;53.136;14.882;2022-12-29T16:24:21;5.78;;;2.10;;
75209;SDS011;63796;53.136;14.882;2022-12-29T16:26:49;2.47;;;0.50;;
75209;SDS011;63796;53.136;14.882;2022-12-29T16:29:35;2.90;;;0.60;;
75209;SDS011;63796;53.136;14.882;2022-12-29T16:32:02;1.70;;;0.72;;
75209;SDS011;63796;53.136;14.882;2022-12-29T16:37:40;2.20;;;0.90;;
75209;SDS011;63796;53.136;14.882;2022-12-29T16:43:00;1.15;;;0.68;;
75209;SDS011;63796;53.136;14.882;2022-12-29T16:51:06;1.17;;;0.80;;
75209;SDS011;63796;53.136;14.882;2022-12-29T16:53:49;2.23;;;0.40;;
75209;SDS011;63796;53.136;14.882;2022-12-29T16:56:23;3.77;;;1.35;;
75209;SDS011;63796;53.136;14.882;2022-12-29T16:59:37;14.65;;;6.05;;
75209;SDS011;63796;53.136;14.882;2022-12-29T17:01:40;28.20;;;11.43;;
75209;SDS011;63796;53.136;14.882;2022-12-29T17:04:05;3.98;;;1.82;;
75209;SDS011;63796;53.136;14.882;2022-12-29T17:06:36;20.00;;;9.57;;
75209;SDS011;63796;53.136;14.882;2022-12-29T17:11:53;43.78;;;13.90;;
75209;SDS011;63796;53.136;14.882;2022-12-29T17:19:54;31.80;;;9.83;;
75209;SDS011;63796;53.136;14.882;2022-12-29T17:22:25;17.20;;;6.87;;
75209;SDS011;63796;53.136;14.882;2022-12-29T17:24:55;2.20;;;1.10;;
75209;SDS011;63796;53.136;14.882;2022-12-29T17:27:38;6.37;;;1.40;;
75209;SDS011;63796;53.136;14.882;2022-12-29T17:30:22;5.15;;;1.55;;
75209;SDS011;63796;53.136;14.882;2022-12-29T17:32:51;38.60;;;12.10;;
75209;SDS011;63796;53.136;14.882;2022-12-29T17:35:21;35.35;;;15.35;;
75209;SDS011;63796;53.136;14.882;2022-12-29T17:37:48;15.23;;;6.45;;
75209;SDS011;63796;53.136;14.882;2022-12-29T17:40:17;5.90;;;0.80;;
75209;SDS011;63796;53.136;14.882;2022-12-29T17:42:48;2.35;;;0.53;;
75209;SDS011;63796;53.136;14.882;2022-12-29T17:47:57;4.00;;;0.57;;
75209;SDS011;63796;53.136;14.882;2022-12-29T17:50:26;2.58;;;0.55;;
75209;SDS011;63796;53.136;14.882;2022-12-29T17:52:58;3.40;;;1.37;;
75209;SDS011;63796;53.136;14.882;2022-12-29T17:55:30;3.27;;;0.82;;
75209;SDS011;63796;53.136;14.882;2022-12-29T17:57:58;5.07;;;1.23;;
75209;SDS011;63796;53.136;14.882;2022-12-29T18:00:29;1.60;;;0.40;;
75209;SDS011;63796;53.136;14.882;2022-12-29T18:02:56;7.85;;;3.25;;
75209;SDS011;63796;53.136;14.882;2022-12-29T18:07:57;1.60;;;0.50;;
75209;SDS011;63796;53.136;14.882;2022-12-29T18:10:27;3.13;;;1.37;;
75209;SDS011;63796;53.136;14.882;2022-12-29T18:12:58;3.50;;;1.70;;
75209;SDS011;63796;53.136;14.882;2022-12-29T18:15:31;2.10;;;0.62;;
75209;SDS011;63796;53.136;14.882;2022-12-29T18:18:00;3.12;;;0.53;;
75209;SDS011;63796;53.136;14.882;2022-12-29T18:20:40;6.65;;;2.10;;
75209;SDS011;63796;53.136;14.882;2022-12-29T18:23:14;4.30;;;0.53;;
75209;SDS011;63796;53.136;14.882;2022-12-29T18:25:51;1.27;;;0.45;;
75209;SDS011;63796;53.136;14.882;2022-12-29T18:28:41;3.72;;;1.55;;
75209;SDS011;63796;53.136;14.882;2022-12-29T18:31:20;5.85;;;2.60;;
75209;SDS011;63796;53.136;14.882;2022-12-29T18:33:50;1.20;;;0.50;;
75209;SDS011;63796;53.136;14.882;2022-12-29T18:36:17;2.20;;;0.50;;
75209;SDS011;63796;53.136;14.882;2022-12-29T18:38:45;1.45;;;0.57;;
75209;SDS011;63796;53.136;14.882;2022-12-29T18:41:19;2.33;;;0.95;;
75209;SDS011;63796;53.136;14.882;2022-12-29T18:43:49;5.75;;;1.05;;
75209;SDS011;63796;53.136;14.882;2022-12-29T18:46:17;4.00;;;1.77;;
75209;SDS011;63796;53.136;14.882;2022-12-29T18:48:44;1.97;;;0.93;;
75209;SDS011;63796;53.136;14.882;2022-12-29T18:51:22;2.08;;;0.90;;
75209;SDS011;63796;53.136;14.882;2022-12-29T18:53:44;3.58;;;0.60;;